Arendahl, Minnesota
Current Conditions -  °F | °C
As of 2:35 AM on Saturday 29 Nov 2014 (Local Time) from KFKA Reporting Station
Haze Haze  
Wind Chill: 17°   Ceiling: Unl
Heat Index: 25°   Visibility: 3mi
Dew Point: 23°   Wind: 7mph
Humidity: 95%   Direction: 140°SE
Pressure: 29.62"   Gusts: NA
Location:  43.7298°N, 91.8267°W
Report Text: KFKA 290835Z AUTO 14006KT 3SM BR CLR M04/M05 A2962 RMK AO2 T10411048
Loading
Personal Weather Stations






























Interactive Weather Map New forecast layout! Learn more

10-Day Weather Forecast

Advertisements
Track Severe Weather on mobile